createdAt,value
2017-10-11T00:00:19.144Z,13.9
2017-10-11T00:01:19.141Z,13.85
2017-10-11T00:02:19.167Z,13.89
2017-10-11T00:03:19.536Z,13.77
2017-10-11T00:04:19.209Z,13.74
2017-10-11T00:05:19.225Z,13.74
2017-10-11T00:06:19.244Z,13.7
2017-10-11T00:07:19.268Z,13.7
2017-10-11T00:08:19.604Z,13.72
2017-10-11T00:09:19.354Z,13.7
2017-10-11T00:10:19.327Z,13.78
2017-10-11T00:11:19.349Z,13.86
2017-10-11T00:12:19.360Z,13.75
2017-10-11T00:13:19.386Z,13.86
2017-10-11T00:14:19.406Z,13.83
2017-10-11T00:15:19.429Z,13.92
2017-10-11T00:16:19.443Z,13.83
2017-10-11T00:17:19.468Z,13.79
2017-10-11T00:18:19.480Z,13.7
2017-10-11T00:19:19.503Z,13.77
2017-10-11T00:20:19.523Z,13.81
2017-10-11T00:21:19.546Z,13.92
2017-10-11T00:22:19.567Z,13.86
2017-10-11T00:23:19.581Z,13.78
2017-10-11T00:24:19.600Z,13.93
2017-10-11T00:25:19.960Z,13.89
2017-10-11T00:26:19.639Z,13.85
2017-10-11T00:27:19.991Z,13.93
2017-10-11T00:28:19.726Z,13.86
2017-10-11T00:29:19.709Z,13.85
2017-10-11T00:30:19.723Z,13.89
2017-10-11T00:31:19.743Z,13.93
2017-10-11T00:32:19.758Z,13.9
2017-10-11T00:33:20.119Z,13.87
2017-10-11T00:34:19.805Z,13.85
2017-10-11T00:35:20.149Z,13.79
2017-10-11T00:36:19.860Z,13.83
2017-10-11T00:37:20.188Z,13.75
2017-10-11T00:38:19.885Z,13.71
2017-10-11T00:39:19.902Z,13.74
2017-10-11T00:40:20.256Z,13.74
2017-10-11T00:41:19.944Z,13.81
2017-10-11T00:42:20.279Z,13.83
2017-10-11T00:43:20.027Z,13.89
2017-10-11T00:44:20.000Z,13.78
2017-10-11T00:45:20.020Z,13.9
2017-10-11T00:46:20.036Z,13.79
2017-10-11T00:47:20.057Z,13.89
2017-10-11T00:48:20.087Z,13.86
2017-10-11T00:49:20.101Z,13.92
2017-10-11T00:50:20.437Z,13.87
2017-10-11T00:51:20.142Z,13.87
2017-10-11T00:52:20.482Z,13.86
2017-10-11T00:53:20.185Z,13.78
2017-10-11T00:54:20.196Z,13.85
2017-10-11T00:55:20.220Z,13.97
2017-10-11T00:56:20.239Z,13.96
2017-10-11T00:57:20.256Z,13.87
2017-10-11T00:58:20.330Z,13.9
2017-10-11T00:59:26.563Z,13.89
2017-10-11T01:00:20.314Z,13.86
2017-10-11T01:01:20.337Z,13.9
2017-10-11T01:02:20.362Z,13.9
2017-10-11T01:03:20.374Z,13.83
2017-10-11T01:04:20.393Z,13.92
2017-10-11T01:05:20.413Z,13.85
2017-10-11T01:06:20.659Z,13.87
2017-10-11T01:07:20.463Z,13.99
2017-10-11T01:08:20.473Z,14.07
2017-10-11T01:09:20.495Z,13.92
2017-10-11T01:10:20.517Z,13.95
2017-10-11T01:11:20.535Z,14.03
2017-10-11T01:12:20.877Z,14.14
2017-10-11T01:13:20.776Z,14.15
2017-10-11T01:14:20.595Z,14.25
2017-10-11T01:15:20.615Z,14.22
2017-10-11T01:16:20.630Z,14.29
2017-10-11T01:17:20.658Z,14.32
2017-10-11T01:18:20.672Z,14.23
2017-10-11T01:19:20.696Z,14.29
2017-10-11T01:20:20.717Z,14.29
2017-10-11T01:21:20.739Z,14.29
2017-10-11T01:22:20.766Z,14.29
2017-10-11T01:23:20.787Z,14.32
2017-10-11T01:24:20.801Z,14.18
2017-10-11T01:25:20.817Z,14.2
2017-10-11T01:26:20.837Z,14.3
2017-10-11T01:27:20.854Z,14.36
2017-10-11T01:28:20.884Z,14.22
2017-10-11T01:29:20.904Z,14.26
2017-10-11T01:30:20.920Z,14.3
2017-10-11T01:31:22.147Z,14.23
2017-10-11T01:32:21.786Z,14.2
2017-10-11T01:33:20.982Z,14.15
2017-10-11T01:34:21.295Z,14.12
2017-10-11T01:35:21.024Z,14.12
2017-10-11T01:36:21.042Z,14.1
2017-10-11T01:37:21.061Z,14.1
2017-10-11T01:38:21.135Z,14.08
2017-10-11T01:39:21.098Z,14.1
2017-10-11T01:40:21.125Z,14.04
2017-10-11T01:41:21.142Z,14.07
2017-10-11T01:42:21.160Z,14.11
2017-10-11T01:43:21.188Z,14.15
2017-10-11T01:44:21.210Z,14.15
2017-10-11T01:45:21.225Z,14.07
2017-10-11T01:46:21.241Z,14.18
2017-10-11T01:47:21.264Z,14.23
2017-10-11T01:48:21.287Z,14.2
2017-10-11T01:49:21.305Z,14.22
2017-10-11T01:50:21.648Z,14.04
2017-10-11T01:51:21.346Z,13.96
2017-10-11T01:52:21.364Z,14.04
2017-10-11T01:53:21.441Z,13.99
2017-10-11T01:54:21.409Z,14.14
2017-10-11T01:55:21.425Z,14
2017-10-11T01:56:21.446Z,14
2017-10-11T01:57:21.469Z,14.08
2017-10-11T01:58:21.489Z,14.08
2017-10-11T01:59:21.514Z,14.08
2017-10-11T02:00:21.857Z,13.81
2017-10-11T02:01:21.548Z,13.96
2017-10-11T02:02:21.569Z,13.81
2017-10-11T02:03:21.585Z,13.89
2017-10-11T02:04:21.610Z,13.87
2017-10-11T02:05:21.631Z,13.9
2017-10-11T02:06:21.648Z,13.86
2017-10-11T02:07:21.668Z,13.87
2017-10-11T02:08:21.689Z,13.9
2017-10-11T02:09:21.708Z,13.83
2017-10-11T02:10:21.779Z,13.92
2017-10-11T02:11:22.404Z,13.78
2017-10-11T02:12:21.778Z,13.83
2017-10-11T02:13:21.788Z,13.75
2017-10-11T02:14:21.812Z,13.85
2017-10-11T02:15:21.832Z,13.75
2017-10-11T02:16:21.864Z,13.83
2017-10-11T02:17:21.877Z,13.83
2017-10-11T02:18:21.890Z,13.83
2017-10-11T02:19:21.912Z,13.74
2017-10-11T02:20:21.939Z,13.67
2017-10-11T02:21:21.947Z,13.65
2017-10-11T02:22:21.968Z,13.75
2017-10-11T02:23:21.988Z,13.71
2017-10-11T02:24:22.009Z,13.75
2017-10-11T02:25:22.032Z,13.68
2017-10-11T02:26:22.100Z,13.67
2017-10-11T02:27:22.068Z,13.65
2017-10-11T02:28:22.090Z,13.67
2017-10-11T02:29:22.107Z,13.7
2017-10-11T02:30:22.128Z,13.68
2017-10-11T02:31:22.149Z,13.67
2017-10-11T02:32:22.169Z,13.7
2017-10-11T02:33:22.202Z,13.78
2017-10-11T02:34:22.205Z,13.71
2017-10-11T02:35:22.224Z,13.68
2017-10-11T02:36:22.276Z,13.62
2017-10-11T02:37:22.281Z,13.49
2017-10-11T02:38:22.290Z,13.5
2017-10-11T02:39:22.307Z,13.41
2017-10-11T02:40:22.324Z,13.35
2017-10-11T02:41:22.345Z,13.39
2017-10-11T02:42:22.372Z,13.47
2017-10-11T02:43:22.385Z,13.49
2017-10-11T02:44:22.405Z,13.44
2017-10-11T02:45:22.742Z,13.31
2017-10-11T02:46:22.446Z,13.53
2017-10-11T02:47:22.467Z,13.42
2017-10-11T02:48:22.483Z,13.42
2017-10-11T02:49:22.511Z,13.39
2017-10-11T02:50:22.846Z,13.33
2017-10-11T02:51:22.869Z,13.46
2017-10-11T02:52:22.564Z,13.33
2017-10-11T02:53:22.582Z,13.33
2017-10-11T02:54:22.605Z,13.47
2017-10-11T02:55:22.620Z,13.44
2017-10-11T02:56:22.646Z,13.33
2017-10-11T02:57:22.657Z,13.25
2017-10-11T02:58:22.678Z,13.35
2017-10-11T02:59:22.751Z,13.23
2017-10-11T03:00:22.719Z,13.25
2017-10-11T03:01:22.738Z,13.22
2017-10-11T03:02:22.756Z,13.12
2017-10-11T03:03:22.778Z,13.03
2017-10-11T03:04:22.797Z,12.93
2017-10-11T03:05:22.817Z,12.9
2017-10-11T03:06:22.833Z,12.87
2017-10-11T03:07:22.854Z,13.04
2017-10-11T03:08:22.889Z,13.01
2017-10-11T03:09:23.222Z,13.03
2017-10-11T03:10:22.912Z,13.05
2017-10-11T03:11:23.571Z,13.12
2017-10-11T03:12:22.951Z,13.2
2017-10-11T03:13:22.972Z,13.08
2017-10-11T03:14:22.987Z,13.19
2017-10-11T03:15:23.011Z,13.03
2017-10-11T03:16:23.082Z,13
2017-10-11T03:17:23.048Z,13.04
2017-10-11T03:18:23.072Z,13.03
2017-10-11T03:19:23.413Z,13.03
2017-10-11T03:20:23.107Z,13
2017-10-11T03:21:23.124Z,12.98
2017-10-11T03:22:23.151Z,12.93
2017-10-11T03:23:23.497Z,12.9
2017-10-11T03:24:23.184Z,12.91
2017-10-11T03:25:23.219Z,12.94
2017-10-11T03:26:23.229Z,12.91
2017-10-11T03:27:23.239Z,12.94
2017-10-11T03:28:23.275Z,12.87
2017-10-11T03:29:23.310Z,12.9
2017-10-11T03:30:23.648Z,12.86
2017-10-11T03:31:23.642Z,12.86
2017-10-11T03:32:23.340Z,12.8
2017-10-11T03:33:23.358Z,12.68
2017-10-11T03:34:23.377Z,12.78
2017-10-11T03:35:23.396Z,12.78
2017-10-11T03:36:23.415Z,12.73
2017-10-11T03:37:23.770Z,12.7
2017-10-11T03:38:23.461Z,12.73
2017-10-11T03:39:23.501Z,12.78
2017-10-11T03:40:23.491Z,12.61
2017-10-11T03:41:23.513Z,12.57
2017-10-11T03:42:23.529Z,12.55
2017-10-11T03:43:23.554Z,12.62
2017-10-11T03:44:23.566Z,12.58
2017-10-11T03:45:23.591Z,12.67
2017-10-11T03:46:23.610Z,12.46
2017-10-11T03:47:23.631Z,12.43
2017-10-11T03:48:23.696Z,12.4
2017-10-11T03:49:23.668Z,12.55
2017-10-11T03:50:23.691Z,12.37
2017-10-11T03:51:23.702Z,12.31
2017-10-11T03:52:23.721Z,12.29
2017-10-11T03:53:23.745Z,12.47
2017-10-11T03:54:23.766Z,12.5
2017-10-11T03:55:23.784Z,12.53
2017-10-11T03:56:23.805Z,12.45
2017-10-11T03:57:23.822Z,12.57
2017-10-11T03:58:23.836Z,12.55
2017-10-11T03:59:23.857Z,12.5
2017-10-11T04:00:23.874Z,12.47
2017-10-11T04:01:23.890Z,12.54
2017-10-11T04:02:23.917Z,12.57
2017-10-11T04:03:23.980Z,12.57
2017-10-11T04:04:23.951Z,12.57
2017-10-11T04:05:23.972Z,12.55
2017-10-11T04:06:23.992Z,12.62
2017-10-11T04:07:24.007Z,12.57
2017-10-11T04:08:24.359Z,12.62
2017-10-11T04:09:24.045Z,12.68
2017-10-11T04:10:24.064Z,12.58
2017-10-11T04:11:24.412Z,12.79
2017-10-11T04:12:24.103Z,12.68
2017-10-11T04:13:24.121Z,12.62
2017-10-11T04:14:24.142Z,12.65
2017-10-11T04:15:24.169Z,12.76
2017-10-11T04:16:24.186Z,12.82
2017-10-11T04:17:24.206Z,12.76
2017-10-11T04:18:24.266Z,12.79
2017-10-11T04:19:24.241Z,12.75
2017-10-11T04:20:24.584Z,12.6
2017-10-11T04:21:24.282Z,12.6
2017-10-11T04:22:24.291Z,12.53
2017-10-11T04:23:24.315Z,12.42
2017-10-11T04:24:24.339Z,12.46
2017-10-11T04:25:24.353Z,12.49
2017-10-11T04:26:24.374Z,12.46
2017-10-11T04:27:24.390Z,12.4
2017-10-11T04:28:24.410Z,12.47
2017-10-11T04:29:24.429Z,12.42
2017-10-11T04:30:24.449Z,12.36
2017-10-11T04:31:24.475Z,12.35
2017-10-11T04:32:24.490Z,12.36
2017-10-11T04:33:24.557Z,12.47
2017-10-11T04:34:24.527Z,12.35
2017-10-11T04:35:24.548Z,12.28
2017-10-11T04:36:24.562Z,12.25
2017-10-11T04:37:24.914Z,12.25
2017-10-11T04:38:24.608Z,12.17
2017-10-11T04:39:24.951Z,12.06
2017-10-11T04:40:24.639Z,12.27
2017-10-11T04:41:24.656Z,12.22
2017-10-11T04:42:24.678Z,12.27
2017-10-11T04:43:24.697Z,12.31
2017-10-11T04:44:24.720Z,12.17
2017-10-11T04:45:24.733Z,12.09
2017-10-11T04:46:24.760Z,12.15
2017-10-11T04:47:24.778Z,12.17
2017-10-11T04:48:24.844Z,12.13
2017-10-11T04:49:24.811Z,12.1
2017-10-11T04:50:24.830Z,12.12
2017-10-11T04:51:24.854Z,12.12
2017-10-11T04:52:24.867Z,12
2017-10-11T04:53:24.890Z,11.91
2017-10-11T04:54:24.925Z,11.94
2017-10-11T04:55:24.923Z,11.97
2017-10-11T04:56:24.948Z,11.97
2017-10-11T04:57:24.964Z,12.06
2017-10-11T04:58:24.983Z,11.97
2017-10-11T04:59:24.997Z,12.02
2017-10-11T05:00:25.019Z,11.99
2017-10-11T05:01:25.039Z,11.84
2017-10-11T05:02:25.056Z,11.81
2017-10-11T05:03:25.080Z,11.65
2017-10-11T05:04:25.101Z,11.72
2017-10-11T05:05:25.116Z,11.77
2017-10-11T05:06:25.185Z,11.77
2017-10-11T05:07:25.151Z,11.86
2017-10-11T05:08:25.188Z,11.77
2017-10-11T05:09:25.210Z,11.75
2017-10-11T05:10:25.213Z,11.81
2017-10-11T05:11:25.228Z,11.75
2017-10-11T05:12:25.252Z,11.62
2017-10-11T05:13:25.269Z,11.7
2017-10-11T05:14:25.282Z,11.8
2017-10-11T05:15:25.622Z,11.8
2017-10-11T05:16:25.321Z,11.77
2017-10-11T05:17:25.345Z,11.72
2017-10-11T05:18:25.359Z,11.59
2017-10-11T05:19:25.375Z,11.6
2017-10-11T05:20:25.393Z,11.75
2017-10-11T05:21:25.414Z,11.72
2017-10-11T05:22:25.434Z,11.72
2017-10-11T05:23:25.463Z,11.75
2017-10-11T05:24:25.496Z,11.72
2017-10-11T05:25:25.491Z,11.72
2017-10-11T05:26:25.524Z,11.68
2017-10-11T05:27:25.531Z,11.75
2017-10-11T05:28:25.545Z,11.75
2017-10-11T05:29:25.564Z,11.78
2017-10-11T05:30:25.582Z,11.81
2017-10-11T05:31:25.602Z,11.63
2017-10-11T05:32:25.618Z,11.6
2017-10-11T05:33:25.643Z,11.65
2017-10-11T05:34:25.657Z,11.65
2017-10-11T05:35:25.676Z,11.68
2017-10-11T05:36:25.694Z,11.66
2017-10-11T05:37:25.716Z,11.66
2017-10-11T05:38:25.741Z,11.75
2017-10-11T05:39:26.077Z,11.84
2017-10-11T05:40:25.772Z,11.88
2017-10-11T05:41:25.838Z,11.9
2017-10-11T05:42:25.806Z,11.99
2017-10-11T05:43:25.827Z,11.86
2017-10-11T05:44:25.848Z,12.04
2017-10-11T05:45:25.863Z,11.95
2017-10-11T05:46:25.886Z,12.03
2017-10-11T05:47:25.902Z,11.94
2017-10-11T05:48:25.923Z,11.94
2017-10-11T05:49:26.048Z,12.02
2017-10-11T05:50:25.964Z,12.07
2017-10-11T05:51:26.084Z,12.12
2017-10-11T05:52:25.998Z,12.02
2017-10-11T05:53:26.191Z,12.1
2017-10-11T05:54:26.363Z,12.18
2017-10-11T05:55:26.073Z,12.31
2017-10-11T05:56:26.070Z,12.07
2017-10-11T05:57:26.140Z,12.31
2017-10-11T05:58:26.107Z,12.29
2017-10-11T05:59:26.130Z,12.21
2017-10-11T06:00:26.154Z,12.29
2017-10-11T06:01:26.166Z,12.24
2017-10-11T06:02:26.183Z,12.28
2017-10-11T06:03:26.203Z,12.28
2017-10-11T06:04:26.242Z,12.24
2017-10-11T06:05:26.240Z,12.32
2017-10-11T06:06:26.265Z,12.27
2017-10-11T06:07:26.382Z,12.28
2017-10-11T06:08:26.308Z,12.28
2017-10-11T06:09:26.323Z,12.4
2017-10-11T06:10:26.680Z,12.43
2017-10-11T06:11:26.362Z,12.47
2017-10-11T06:12:26.379Z,12.46
2017-10-11T06:13:26.397Z,12.57
2017-10-11T06:14:26.412Z,12.57
2017-10-11T06:15:26.438Z,12.55
2017-10-11T06:16:26.454Z,12.5
2017-10-11T06:17:26.476Z,12.4
2017-10-11T06:18:26.489Z,12.6
2017-10-11T06:19:26.511Z,12.65
2017-10-11T06:20:26.609Z,12.62
2017-10-11T06:21:26.647Z,12.53
2017-10-11T06:22:26.730Z,12.46
2017-10-11T06:23:26.668Z,12.53
2017-10-11T06:24:26.735Z,12.57
2017-10-11T06:25:26.695Z,12.47
2017-10-11T06:26:26.641Z,12.53
2017-10-11T06:27:26.797Z,12.5
2017-10-11T06:28:26.681Z,12.55
2017-10-11T06:29:26.700Z,12.36
2017-10-11T06:30:26.985Z,12.42
2017-10-11T06:31:27.595Z,12.57
2017-10-11T06:32:26.764Z,12.61
2017-10-11T06:33:26.781Z,12.61
2017-10-11T06:34:26.803Z,12.61
2017-10-11T06:35:27.065Z,12.57
2017-10-11T06:36:26.887Z,12.49
2017-10-11T06:37:26.985Z,12.62
2017-10-11T06:38:26.882Z,12.6
2017-10-11T06:39:26.896Z,12.67
2017-10-11T06:40:26.916Z,12.61
2017-10-11T06:41:27.300Z,12.64
2017-10-11T06:42:27.171Z,12.73
2017-10-11T06:43:27.029Z,12.73
2017-10-11T06:44:27.214Z,12.85
2017-10-11T06:45:27.172Z,12.82
2017-10-11T06:46:27.032Z,12.8
2017-10-11T06:47:27.083Z,12.79
2017-10-11T06:48:27.120Z,12.8
2017-10-11T06:49:27.097Z,12.85
2017-10-11T06:50:27.108Z,12.57
2017-10-11T06:51:27.188Z,12.75
2017-10-11T06:52:27.470Z,12.79
2017-10-11T06:53:27.169Z,12.75
2017-10-11T06:54:27.205Z,12.75
2017-10-11T06:55:27.207Z,12.8
2017-10-11T06:56:27.228Z,12.8
2017-10-11T06:57:27.663Z,12.86
2017-10-11T06:58:27.353Z,12.9
2017-10-11T06:59:27.291Z,12.93
2017-10-11T07:00:27.311Z,12.98
2017-10-11T07:01:27.331Z,13.11
2017-10-11T07:02:27.567Z,13.15
2017-10-11T07:03:27.514Z,13.28
2017-10-11T07:04:27.816Z,13.23
2017-10-11T07:05:27.555Z,13.31
2017-10-11T07:06:27.914Z,13.41
2017-10-11T07:07:27.532Z,13.5
2017-10-11T07:08:27.680Z,13.72
2017-10-11T07:09:27.979Z,13.72
2017-10-11T07:10:27.590Z,13.87
2017-10-11T07:11:27.614Z,13.99
2017-10-11T07:12:28.051Z,13.96
2017-10-11T07:13:28.144Z,14.03
2017-10-11T07:14:27.850Z,14.18
2017-10-11T07:15:27.948Z,14.23
2017-10-11T07:16:28.237Z,14.36
2017-10-11T07:17:27.646Z,14.53
2017-10-11T07:18:27.667Z,14.47
2017-10-11T07:19:27.685Z,14.32
2017-10-11T07:20:27.735Z,14.33
2017-10-11T07:21:27.731Z,14.36
2017-10-11T07:22:27.747Z,14.4
2017-10-11T07:23:28.107Z,14.36
2017-10-11T07:24:28.117Z,14.36
2017-10-11T07:25:27.825Z,14.37
2017-10-11T07:26:28.078Z,14.36
2017-10-11T07:27:27.852Z,14.36
2017-10-11T07:28:27.922Z,14.51
2017-10-11T07:29:28.256Z,14.48
2017-10-11T07:30:27.920Z,14.6
2017-10-11T07:31:28.039Z,14.62
2017-10-11T07:32:27.955Z,14.72
2017-10-11T07:33:27.984Z,14.73
2017-10-11T07:34:27.998Z,14.81
2017-10-11T07:35:28.313Z,14.72
2017-10-11T07:36:28.033Z,14.7
2017-10-11T07:37:28.068Z,14.72
2017-10-11T07:38:28.490Z,14.84
2017-10-11T07:39:28.101Z,14.91
2017-10-11T07:40:28.125Z,15.04
2017-10-11T07:41:28.158Z,15.03
2017-10-11T07:42:28.168Z,15.02
2017-10-11T07:43:28.239Z,15.17
2017-10-11T07:44:28.211Z,15.17
2017-10-11T07:45:28.543Z,15.06
2017-10-11T07:46:28.573Z,15.06
2017-10-11T07:47:28.290Z,14.91
2017-10-11T07:48:28.293Z,15
2017-10-11T07:49:28.711Z,15.02
2017-10-11T07:50:28.680Z,15.06
2017-10-11T07:51:28.357Z,15.11
2017-10-11T07:52:28.380Z,15.06
2017-10-11T07:53:28.417Z,15.1
2017-10-11T07:54:28.417Z,15.06
2017-10-11T07:55:28.440Z,14.99
2017-10-11T07:56:28.825Z,15.07
2017-10-11T07:57:28.510Z,15.04
2017-10-11T07:58:28.568Z,15.06
2017-10-11T07:59:28.640Z,15.19
2017-10-11T08:00:28.549Z,15.27
2017-10-11T08:01:28.601Z,15.27
2017-10-11T08:02:28.776Z,15.27
2017-10-11T08:03:28.612Z,15.22
2017-10-11T08:04:28.695Z,15.29
2017-10-11T08:05:28.693Z,15.37
2017-10-11T08:06:29.096Z,15.57
2017-10-11T08:07:28.755Z,15.62
2017-10-11T08:08:28.840Z,15.7
2017-10-11T08:09:29.024Z,15.73
2017-10-11T08:10:28.782Z,15.92
2017-10-11T08:11:29.225Z,16.01
2017-10-11T08:12:28.804Z,15.95
2017-10-11T08:13:28.860Z,15.98
2017-10-11T08:14:28.981Z,16.12
2017-10-11T08:15:28.866Z,16.17
2017-10-11T08:16:28.939Z,16.35
2017-10-11T08:17:29.232Z,16.47
2017-10-11T08:18:28.933Z,16.56
2017-10-11T08:19:28.953Z,16.38
2017-10-11T08:20:28.977Z,16.35
2017-10-11T08:21:29.112Z,16.41
2017-10-11T08:22:29.334Z,16.39
2017-10-11T08:23:29.136Z,16.46
2017-10-11T08:24:29.488Z,16.53
2017-10-11T08:25:29.118Z,16.43
2017-10-11T08:26:29.106Z,16.64
2017-10-11T08:27:29.130Z,16.66
2017-10-11T08:28:29.160Z,16.72
2017-10-11T08:29:29.171Z,16.83
2017-10-11T08:30:29.571Z,16.74
2017-10-11T08:31:29.552Z,16.79
2017-10-11T08:32:29.242Z,16.76
2017-10-11T08:33:29.283Z,16.89
2017-10-11T08:34:29.298Z,17.05
2017-10-11T08:35:29.309Z,17.11
2017-10-11T08:36:29.329Z,16.99
2017-10-11T08:37:29.676Z,17.12
2017-10-11T08:38:29.699Z,17.26
2017-10-11T08:39:29.400Z,17.14
2017-10-11T08:40:29.415Z,17.23
2017-10-11T08:41:29.440Z,17.3
2017-10-11T08:42:29.467Z,17.33
2017-10-11T08:43:29.491Z,17.34
2017-10-11T08:44:29.512Z,17.26
2017-10-11T08:45:29.535Z,17.39
2017-10-11T08:46:29.609Z,17.23
2017-10-11T08:47:29.910Z,17.42
2017-10-11T08:48:30.180Z,17.57
2017-10-11T08:49:29.946Z,17.74
2017-10-11T08:50:29.833Z,17.72
2017-10-11T08:51:29.673Z,17.7
2017-10-11T08:52:30.012Z,17.7
2017-10-11T08:53:29.713Z,17.71
2017-10-11T08:54:29.740Z,17.94
2017-10-11T08:55:29.764Z,18.07
2017-10-11T08:56:29.789Z,18.08
2017-10-11T08:57:29.807Z,18.15
2017-10-11T08:58:29.832Z,18.29
2017-10-11T08:59:29.851Z,18.45
2017-10-11T09:00:29.883Z,18.2
2017-10-11T09:01:29.968Z,18.23
2017-10-11T09:02:29.927Z,18.34
2017-10-11T09:03:29.976Z,18.38
2017-10-11T09:04:30.011Z,18.28
2017-10-11T09:05:29.999Z,18.26
2017-10-11T09:06:30.025Z,18.29
2017-10-11T09:07:30.042Z,18.23
2017-10-11T09:08:30.064Z,18.38
2017-10-11T09:09:30.091Z,18.45
2017-10-11T09:10:30.114Z,18.37
2017-10-11T09:11:30.135Z,18.2
2017-10-11T09:12:30.157Z,18.26
2017-10-11T09:13:30.709Z,18.45
2017-10-11T09:14:30.207Z,18.53
2017-10-11T09:15:30.530Z,18.49
2017-10-11T09:16:30.292Z,18.41
2017-10-11T09:17:30.330Z,18.55
2017-10-11T09:18:30.350Z,18.66
2017-10-11T09:19:30.413Z,18.4
2017-10-11T09:20:30.500Z,18.65
2017-10-11T09:21:30.371Z,18.4
2017-10-11T09:22:30.400Z,18.34
2017-10-11T09:23:30.554Z,18.44
2017-10-11T09:24:30.509Z,18.4
2017-10-11T09:25:30.736Z,18.4
2017-10-11T09:26:31.060Z,18.23
2017-10-11T09:27:30.763Z,18.38
2017-10-11T09:28:30.628Z,18.41
2017-10-11T09:29:30.625Z,18.49
2017-10-11T09:30:30.917Z,18.53
2017-10-11T09:31:30.615Z,18.58
2017-10-11T09:32:30.640Z,18.6
2017-10-11T09:33:30.755Z,18.65
2017-10-11T09:34:30.731Z,18.44
2017-10-11T09:35:30.732Z,18.62
2017-10-11T09:36:30.739Z,18.83
2017-10-11T09:37:30.764Z,18.93
2017-10-11T09:38:30.778Z,19
2017-10-11T09:39:30.810Z,19.07
2017-10-11T09:40:30.836Z,19.09
2017-10-11T09:41:30.869Z,19.12
2017-10-11T09:42:30.880Z,19.11
2017-10-11T09:43:30.902Z,19.09
2017-10-11T09:44:30.929Z,18.95
2017-10-11T09:45:30.956Z,19.02
2017-10-11T09:46:30.978Z,19.16
2017-10-11T09:47:30.999Z,19.21
2017-10-11T09:48:31.351Z,19.09
2017-10-11T09:49:31.050Z,19.16
2017-10-11T09:50:31.072Z,19.36
2017-10-11T09:51:31.098Z,19.41
2017-10-11T09:52:31.121Z,19.39
2017-10-11T09:53:31.172Z,19.27
2017-10-11T09:54:31.167Z,19.27
2017-10-11T09:55:31.196Z,19.26
2017-10-11T09:56:31.334Z,19.26
2017-10-11T09:57:31.268Z,19.21
2017-10-11T09:58:31.266Z,19.14
2017-10-11T09:59:31.308Z,19.19
2017-10-11T10:00:31.319Z,19.33
2017-10-11T10:01:31.353Z,19.26
2017-10-11T10:02:31.364Z,19.41
2017-10-11T10:03:31.401Z,19.7
2017-10-11T10:04:31.442Z,19.89
2017-10-11T10:05:31.439Z,20.03
2017-10-11T10:06:31.461Z,20.09
2017-10-11T10:07:31.488Z,20.29
2017-10-11T10:08:31.565Z,20.5
2017-10-11T10:09:31.540Z,20.34
2017-10-11T10:10:31.619Z,20.4
2017-10-11T10:11:31.587Z,20.37
2017-10-11T10:12:31.621Z,20.43
2017-10-11T10:13:31.639Z,20.65
2017-10-11T10:14:31.671Z,20.75
2017-10-11T10:15:31.711Z,20.93
2017-10-11T10:16:31.729Z,20.97
2017-10-11T10:17:31.748Z,21.24
2017-10-11T10:18:31.777Z,21.67
2017-10-11T10:19:31.803Z,21.88
2017-10-11T10:20:31.830Z,22.02
2017-10-11T10:21:31.858Z,22.32
2017-10-11T10:22:31.896Z,22.39
2017-10-11T10:23:31.911Z,22.51
2017-10-11T10:24:31.996Z,22.51
2017-10-11T10:25:31.988Z,22.44
2017-10-11T10:26:31.998Z,22.62
2017-10-11T10:27:32.025Z,23.05
2017-10-11T10:28:32.096Z,23.43
2017-10-11T10:29:32.098Z,23.66
2017-10-11T10:30:32.442Z,23.96
2017-10-11T10:31:32.144Z,23.8
2017-10-11T10:32:32.173Z,23.92
2017-10-11T10:33:32.208Z,24.02
2017-10-11T10:34:32.234Z,23.86
2017-10-11T10:35:32.265Z,23.92
2017-10-11T10:36:32.298Z,24.03
2017-10-11T10:37:32.339Z,23.91
2017-10-11T10:38:32.403Z,24.08
2017-10-11T10:39:32.423Z,24.17
2017-10-11T10:40:32.743Z,24.05
2017-10-11T10:41:32.499Z,24.24
2017-10-11T10:42:32.486Z,24.65
2017-10-11T10:43:32.511Z,24.93
2017-10-11T10:44:32.548Z,24.8
2017-10-11T10:45:32.579Z,24.8
2017-10-11T10:46:32.679Z,25.11
2017-10-11T10:47:32.638Z,24.91
2017-10-11T10:48:32.992Z,25.17
2017-10-11T10:49:32.702Z,25.4
2017-10-11T10:50:32.734Z,25.81
2017-10-11T10:51:32.765Z,25.96
2017-10-11T10:52:32.795Z,26.31
2017-10-11T10:53:32.829Z,26.6
2017-10-11T10:54:32.867Z,26.58
2017-10-11T10:55:32.910Z,26.51
2017-10-11T10:56:32.967Z,26.65
2017-10-11T10:57:32.948Z,26.78
2017-10-11T10:58:32.986Z,26.43
2017-10-11T10:59:33.018Z,26.07
2017-10-11T11:00:33.049Z,26.09
2017-10-11T11:01:33.084Z,26.38
2017-10-11T11:02:33.113Z,26.55
2017-10-11T11:03:33.155Z,26.55
2017-10-11T11:04:33.176Z,26.81
2017-10-11T11:05:33.210Z,27.02
2017-10-11T11:06:33.246Z,26.96
2017-10-11T11:07:33.609Z,27.22
2017-10-11T11:08:33.307Z,27.25
2017-10-11T11:09:33.349Z,27.51
2017-10-11T11:10:33.372Z,27.74
2017-10-11T11:11:33.460Z,27.92
2017-10-11T11:12:33.439Z,28.22
2017-10-11T11:13:33.471Z,28.33
2017-10-11T11:14:33.511Z,28.66
2017-10-11T11:15:33.542Z,28.93
2017-10-11T11:16:33.571Z,28.35
2017-10-11T11:17:33.607Z,28
2017-10-11T11:18:33.642Z,27.98
2017-10-11T11:19:33.691Z,28.27
2017-10-11T11:20:33.723Z,28.17
2017-10-11T11:21:33.733Z,28.51
2017-10-11T11:22:33.770Z,28.97
2017-10-11T11:23:33.803Z,29.45
2017-10-11T11:24:33.834Z,29.36
2017-10-11T11:25:33.866Z,29.13
2017-10-11T11:26:33.901Z,28.79
2017-10-11T11:27:34.261Z,28.49
2017-10-11T11:28:34.022Z,28.49
2017-10-11T11:29:34.006Z,28.17
2017-10-11T11:30:34.058Z,28.44
2017-10-11T11:31:34.065Z,28.81
2017-10-11T11:32:34.104Z,29.2
2017-10-11T11:33:34.143Z,29.26
2017-10-11T11:34:34.176Z,28.66
2017-10-11T11:35:34.230Z,28.67
2017-10-11T11:36:34.236Z,28.84
2017-10-11T11:37:34.275Z,28.93
2017-10-11T11:38:34.310Z,28.78
2017-10-11T11:39:34.418Z,29.16
2017-10-11T11:40:34.397Z,29.14
2017-10-11T11:41:34.411Z,28.96
2017-10-11T11:42:34.496Z,29.19
2017-10-11T11:43:34.484Z,29.19
2017-10-11T11:44:34.564Z,29.36
2017-10-11T11:45:34.546Z,29.75
2017-10-11T11:46:34.693Z,30.15
2017-10-11T11:47:34.610Z,29.82
2017-10-11T11:48:34.652Z,30.34
2017-10-11T11:49:34.681Z,30.68
2017-10-11T11:50:34.715Z,30.9
2017-10-11T11:51:34.750Z,31.12
2017-10-11T11:52:35.116Z,31.61
2017-10-11T11:53:34.824Z,32.07
2017-10-11T11:54:35.255Z,31.55
2017-10-11T11:55:34.955Z,31.92
2017-10-11T11:56:34.928Z,32.29
2017-10-11T11:57:34.963Z,32.71
2017-10-11T11:58:35.003Z,32.92
2017-10-11T11:59:35.035Z,32.9
2017-10-11T12:00:35.395Z,32.6
2017-10-11T12:01:35.429Z,31.77
2017-10-11T12:02:35.792Z,31.14
2017-10-11T12:03:35.202Z,31.28
2017-10-11T12:04:35.810Z,31.55
2017-10-11T12:05:35.307Z,31.44
2017-10-11T12:06:35.300Z,31.64
2017-10-11T12:07:35.320Z,32.01
2017-10-11T12:08:35.676Z,32.63
2017-10-11T12:09:35.405Z,33.11
2017-10-11T12:10:35.447Z,33.43
2017-10-11T12:11:35.459Z,33.46
2017-10-11T12:12:35.503Z,33.31
2017-10-11T12:13:35.532Z,33.5
2017-10-11T12:14:35.893Z,34.16
2017-10-11T12:15:35.663Z,34.57
2017-10-11T12:16:35.650Z,34.21
2017-10-11T12:17:35.673Z,33.8
2017-10-11T12:18:35.713Z,33.5
2017-10-11T12:19:35.752Z,32.64
2017-10-11T12:20:35.784Z,32.4
2017-10-11T12:21:36.194Z,32.14
2017-10-11T12:22:35.857Z,32.53
2017-10-11T12:23:35.899Z,32.77
2017-10-11T12:24:36.260Z,32.27
2017-10-11T12:25:35.975Z,32.48
2017-10-11T12:26:36.333Z,32.6
2017-10-11T12:27:36.047Z,32.58
2017-10-11T12:28:36.154Z,33.14
2017-10-11T12:29:36.191Z,32.89
2017-10-11T12:30:36.206Z,33.07
2017-10-11T12:31:36.191Z,33.23
2017-10-11T12:32:36.288Z,33.09
2017-10-11T12:33:36.678Z,33.09
2017-10-11T12:34:36.362Z,32.12
2017-10-11T12:35:36.332Z,31.58
2017-10-11T12:36:36.373Z,31.51
2017-10-11T12:37:36.411Z,31.99
2017-10-11T12:38:36.444Z,32.4
2017-10-11T12:39:36.791Z,31.66
2017-10-11T12:40:36.545Z,31.59
2017-10-11T12:41:36.544Z,31.59
2017-10-11T12:42:36.579Z,32.27
2017-10-11T12:43:36.616Z,32.48
2017-10-11T12:44:36.656Z,32.95
2017-10-11T12:45:37.070Z,33.01
2017-10-11T12:46:36.728Z,32.74
2017-10-11T12:47:36.767Z,32.8
2017-10-11T12:48:36.796Z,33.46
2017-10-11T12:49:36.835Z,34.17
2017-10-11T12:50:36.869Z,34.27
2017-10-11T12:51:37.230Z,33.84
2017-10-11T12:52:36.959Z,33.81
2017-10-11T12:53:36.990Z,34.32
2017-10-11T12:54:37.085Z,34.67
2017-10-11T12:55:37.050Z,35.26
2017-10-11T12:56:37.088Z,35.45